sensor_id;sensor_type;location;lat;lon;timestamp;pressure;altitude;pressure_sealevel;temperature
24714;BMP280;12820;51.580;5.010;2022-07-17T00:03:41;102639.63;;;18.70
24714;BMP280;12820;51.580;5.010;2022-07-17T00:08:45;102645.66;;;18.65
24714;BMP280;12820;51.580;5.010;2022-07-17T00:13:48;102642.41;;;18.57
24714;BMP280;12820;51.580;5.010;2022-07-17T00:18:50;102644.22;;;18.50
24714;BMP280;12820;51.580;5.010;2022-07-17T00:23:53;102644.34;;;18.45
24714;BMP280;12820;51.580;5.010;2022-07-17T00:28:55;102645.31;;;18.38
24714;BMP280;12820;51.580;5.010;2022-07-17T00:33:57;102651.34;;;18.31
24714;BMP280;12820;51.580;5.010;2022-07-17T00:39:03;102643.84;;;18.25
24714;BMP280;12820;51.580;5.010;2022-07-17T00:44:09;102649.03;;;18.19
24714;BMP280;12820;51.580;5.010;2022-07-17T00:49:12;102655.06;;;18.14
24714;BMP280;12820;51.580;5.010;2022-07-17T00:54:15;102651.75;;;18.09
24714;BMP280;12820;51.580;5.010;2022-07-17T00:59:20;102641.66;;;18.05
24714;BMP280;12820;51.580;5.010;2022-07-17T01:04:23;102640.88;;;17.98
24714;BMP280;12820;51.580;5.010;2022-07-17T01:09:27;102648.66;;;17.93
24714;BMP280;12820;51.580;5.010;2022-07-17T01:14:29;102644.50;;;17.87
24714;BMP280;12820;51.580;5.010;2022-07-17T01:19:31;102631.00;;;17.82
24714;BMP280;12820;51.580;5.010;2022-07-17T01:24:33;102623.44;;;17.75
24714;BMP280;12820;51.580;5.010;2022-07-17T01:29:36;102622.69;;;17.69
24714;BMP280;12820;51.580;5.010;2022-07-17T01:34:39;102636.34;;;17.62
24714;BMP280;12820;51.580;5.010;2022-07-17T01:39:41;102640.69;;;17.56
24714;BMP280;12820;51.580;5.010;2022-07-17T01:44:55;102649.22;;;17.50
24714;BMP280;12820;51.580;5.010;2022-07-17T01:49:58;102645.06;;;17.46
24714;BMP280;12820;51.580;5.010;2022-07-17T01:55:00;102636.69;;;17.39
24714;BMP280;12820;51.580;5.010;2022-07-17T02:00:04;102639.31;;;17.33
24714;BMP280;12820;51.580;5.010;2022-07-17T02:05:08;102653.84;;;17.24
24714;BMP280;12820;51.580;5.010;2022-07-17T02:10:11;102648.88;;;17.16
24714;BMP280;12820;51.580;5.010;2022-07-17T02:15:16;102646.41;;;17.07
24714;BMP280;12820;51.580;5.010;2022-07-17T02:20:18;102640.59;;;17.03
24714;BMP280;12820;51.580;5.010;2022-07-17T02:25:20;102635.53;;;16.98
24714;BMP280;12820;51.580;5.010;2022-07-17T02:30:24;102613.59;;;16.90
24714;BMP280;12820;51.580;5.010;2022-07-17T02:35:26;102617.06;;;16.83
24714;BMP280;12820;51.580;5.010;2022-07-17T02:40:28;102624.75;;;16.76
24714;BMP280;12820;51.580;5.010;2022-07-17T02:45:30;102628.22;;;16.71
24714;BMP280;12820;51.580;5.010;2022-07-17T02:50:32;102642.66;;;16.66
24714;BMP280;12820;51.580;5.010;2022-07-17T02:55:35;102645.22;;;16.63
24714;BMP280;12820;51.580;5.010;2022-07-17T03:00:38;102640.19;;;16.60
24714;BMP280;12820;51.580;5.010;2022-07-17T03:05:40;102638.50;;;16.59
24714;BMP280;12820;51.580;5.010;2022-07-17T03:10:42;102645.28;;;16.55
24714;BMP280;12820;51.580;5.010;2022-07-17T03:15:44;102642.78;;;16.54
24714;BMP280;12820;51.580;5.010;2022-07-17T03:20:46;102644.50;;;16.52
24714;BMP280;12820;51.580;5.010;2022-07-17T03:25:48;102658.06;;;16.48
24714;BMP280;12820;51.580;5.010;2022-07-17T03:30:50;102653.03;;;16.45
24714;BMP280;12820;51.580;5.010;2022-07-17T03:35:52;102658.13;;;16.42
24714;BMP280;12820;51.580;5.010;2022-07-17T03:40:54;102653.09;;;16.36
24714;BMP280;12820;51.580;5.010;2022-07-17T03:45:56;102651.44;;;16.33
24714;BMP280;12820;51.580;5.010;2022-07-17T03:50:59;102661.63;;;16.30
24714;BMP280;12820;51.580;5.010;2022-07-17T03:56:01;102659.94;;;16.29
24714;BMP280;12820;51.580;5.010;2022-07-17T04:01:03;102661.69;;;16.27
24714;BMP280;12820;51.580;5.010;2022-07-17T04:06:06;102657.44;;;16.26
24714;BMP280;12820;51.580;5.010;2022-07-17T04:11:08;102661.69;;;16.24
24714;BMP280;12820;51.580;5.010;2022-07-17T04:16:11;102660.00;;;16.23
24714;BMP280;12820;51.580;5.010;2022-07-17T04:21:14;102665.91;;;16.25
24714;BMP280;12820;51.580;5.010;2022-07-17T04:26:19;102675.22;;;16.26
24714;BMP280;12820;51.580;5.010;2022-07-17T04:31:21;102677.72;;;16.27
24714;BMP280;12820;51.580;5.010;2022-07-17T04:36:23;102676.03;;;16.28
24714;BMP280;12820;51.580;5.010;2022-07-17T04:41:25;102678.56;;;16.28
24714;BMP280;12820;51.580;5.010;2022-07-17T04:46:27;102681.09;;;16.29
24714;BMP280;12820;51.580;5.010;2022-07-17T04:51:32;102659.91;;;16.32
24714;BMP280;12820;51.580;5.010;2022-07-17T04:56:34;102657.38;;;16.33
24714;BMP280;12820;51.580;5.010;2022-07-17T05:01:36;102668.31;;;16.36
24714;BMP280;12820;51.580;5.010;2022-07-17T05:06:42;102671.66;;;16.41
24714;BMP280;12820;51.580;5.010;2022-07-17T05:11:44;102669.94;;;16.46
24714;BMP280;12820;51.580;5.010;2022-07-17T05:16:48;102684.28;;;16.52
24714;BMP280;12820;51.580;5.010;2022-07-17T05:21:51;102689.28;;;16.59
24714;BMP280;12820;51.580;5.010;2022-07-17T05:26:53;102671.47;;;16.65
24714;BMP280;12820;51.580;5.010;2022-07-17T05:31:55;102681.53;;;16.71
24714;BMP280;12820;51.580;5.010;2022-07-17T05:36:57;102677.25;;;16.77
24714;BMP280;12820;51.580;5.010;2022-07-17T05:41:59;102679.69;;;16.84
24714;BMP280;12820;51.580;5.010;2022-07-17T05:47:01;102670.31;;;16.89
24714;BMP280;12820;51.580;5.010;2022-07-17T05:52:04;102674.53;;;16.96
24714;BMP280;12820;51.580;5.010;2022-07-17T05:57:06;102663.44;;;17.03
24714;BMP280;12820;51.580;5.010;2022-07-17T06:02:11;102663.34;;;17.08
24714;BMP280;12820;51.580;5.010;2022-07-17T06:07:13;102666.66;;;17.16
24714;BMP280;12820;51.580;5.010;2022-07-17T06:12:15;102659.78;;;17.23
24714;BMP280;12820;51.580;5.010;2022-07-17T06:17:18;102669.84;;;17.31
24714;BMP280;12820;51.580;5.010;2022-07-17T06:22:21;102677.44;;;17.36
24714;BMP280;12820;51.580;5.010;2022-07-17T06:27:23;102688.34;;;17.43
24714;BMP280;12820;51.580;5.010;2022-07-17T06:32:25;102679.75;;;17.50
24714;BMP280;12820;51.580;5.010;2022-07-17T06:37:27;102702.56;;;17.58
24714;BMP280;12820;51.580;5.010;2022-07-17T06:42:30;102699.88;;;17.65
24714;BMP280;12820;51.580;5.010;2022-07-17T06:47:33;102704.88;;;17.72
24714;BMP280;12820;51.580;5.010;2022-07-17T06:52:35;102715.78;;;17.81
24714;BMP280;12820;51.580;5.010;2022-07-17T06:57:37;102704.66;;;17.90
24714;BMP280;12820;51.580;5.010;2022-07-17T07:02:39;102708.75;;;17.98
24714;BMP280;12820;51.580;5.010;2022-07-17T07:07:41;102717.13;;;18.06
24714;BMP280;12820;51.580;5.010;2022-07-17T07:12:43;102724.63;;;18.16
24714;BMP280;12820;51.580;5.010;2022-07-17T07:17:45;102723.63;;;18.24
24714;BMP280;12820;51.580;5.010;2022-07-17T07:22:47;102730.25;;;18.34
24714;BMP280;12820;51.580;5.010;2022-07-17T07:27:49;102734.28;;;18.47
24714;BMP280;12820;51.580;5.010;2022-07-17T07:32:52;102732.41;;;18.56
24714;BMP280;12820;51.580;5.010;2022-07-17T07:37:54;102729.69;;;18.67
24714;BMP280;12820;51.580;5.010;2022-07-17T07:42:57;102727.78;;;18.80
24714;BMP280;12820;51.580;5.010;2022-07-17T07:48:03;102733.50;;;18.92
24714;BMP280;12820;51.580;5.010;2022-07-17T07:53:05;102730.72;;;19.03
24714;BMP280;12820;51.580;5.010;2022-07-17T07:58:09;102733.91;;;19.14
24714;BMP280;12820;51.580;5.010;2022-07-17T08:03:13;102731.16;;;19.24
24714;BMP280;12820;51.580;5.010;2022-07-17T08:08:15;102729.19;;;19.37
24714;BMP280;12820;51.580;5.010;2022-07-17T08:13:18;102738.25;;;19.51
24714;BMP280;12820;51.580;5.010;2022-07-17T08:18:21;102720.97;;;19.64
24714;BMP280;12820;51.580;5.010;2022-07-17T08:23:23;102727.47;;;19.78
24714;BMP280;12820;51.580;5.010;2022-07-17T08:28:25;102710.19;;;19.91
24714;BMP280;12820;51.580;5.010;2022-07-17T08:33:27;102713.25;;;20.04
24714;BMP280;12820;51.580;5.010;2022-07-17T08:38:29;102712.03;;;20.20
24714;BMP280;12820;51.580;5.010;2022-07-17T08:43:31;102701.47;;;20.34
24714;BMP280;12820;51.580;5.010;2022-07-17T08:48:35;102698.56;;;20.47
24714;BMP280;12820;51.580;5.010;2022-07-17T08:53:38;102706.63;;;20.64
24714;BMP280;12820;51.580;5.010;2022-07-17T08:58:42;102705.41;;;20.78
24714;BMP280;12820;51.580;5.010;2022-07-17T09:03:58;102702.38;;;20.96
24714;BMP280;12820;51.580;5.010;2022-07-17T09:09:12;102701.09;;;21.11
24714;BMP280;12820;51.580;5.010;2022-07-17T09:14:14;102699.81;;;21.25
24714;BMP280;12820;51.580;5.010;2022-07-17T09:19:29;102701.91;;;21.41
24714;BMP280;12820;51.580;5.010;2022-07-17T09:24:53;102698.03;;;21.57
24714;BMP280;12820;51.580;5.010;2022-07-17T09:35:02;102690.22;;;21.88
24714;BMP280;12820;51.580;5.010;2022-07-17T09:40:12;102698.13;;;22.08
24714;BMP280;12820;51.580;5.010;2022-07-17T09:45:33;102704.13;;;22.33
24714;BMP280;12820;51.580;5.010;2022-07-17T09:50:37;102701.72;;;22.53
24714;BMP280;12820;51.580;5.010;2022-07-17T09:55:40;102684.78;;;22.73
24714;BMP280;12820;51.580;5.010;2022-07-17T10:00:50;102688.00;;;23.01
24714;BMP280;12820;51.580;5.010;2022-07-17T10:05:52;102686.47;;;23.20
24714;BMP280;12820;51.580;5.010;2022-07-17T10:10:54;102682.97;;;23.45
24714;BMP280;12820;51.580;5.010;2022-07-17T10:15:58;102673.31;;;23.72
24714;BMP280;12820;51.580;5.010;2022-07-17T10:21:22;102683.91;;;24.06
24714;BMP280;12820;51.580;5.010;2022-07-17T10:31:50;102682.56;;;24.58
24714;BMP280;12820;51.580;5.010;2022-07-17T10:36:52;102682.09;;;24.88
24714;BMP280;12820;51.580;5.010;2022-07-17T10:47:00;102668.34;;;25.44
24714;BMP280;12820;51.580;5.010;2022-07-17T10:52:02;102666.91;;;25.73
24714;BMP280;12820;51.580;5.010;2022-07-17T10:57:05;102661.28;;;26.00
24714;BMP280;12820;51.580;5.010;2022-07-17T11:02:07;102667.03;;;26.23
24714;BMP280;12820;51.580;5.010;2022-07-17T11:07:10;102671.13;;;26.43
24714;BMP280;12820;51.580;5.010;2022-07-17T11:12:12;102669.81;;;26.68
24714;BMP280;12820;51.580;5.010;2022-07-17T11:17:18;102670.06;;;26.95
24714;BMP280;12820;51.580;5.010;2022-07-17T11:22:23;102663.56;;;27.20
24714;BMP280;12820;51.580;5.010;2022-07-17T11:27:29;102656.41;;;27.40
24714;BMP280;12820;51.580;5.010;2022-07-17T11:32:35;102664.53;;;27.64
24714;BMP280;12820;51.580;5.010;2022-07-17T11:37:38;102658.56;;;27.93
24714;BMP280;12820;51.580;5.010;2022-07-17T11:42:40;102650.84;;;28.21
24714;BMP280;12820;51.580;5.010;2022-07-17T11:47:43;102643.19;;;28.47
24714;BMP280;12820;51.580;5.010;2022-07-17T11:52:49;102640.19;;;28.68
24714;BMP280;12820;51.580;5.010;2022-07-17T11:57:51;102644.81;;;28.90
24714;BMP280;12820;51.580;5.010;2022-07-17T12:03:03;102645.75;;;29.17
24714;BMP280;12820;51.580;5.010;2022-07-17T12:08:18;102633.03;;;29.40
24714;BMP280;12820;51.580;5.010;2022-07-17T12:13:20;102627.97;;;29.64
24714;BMP280;12820;51.580;5.010;2022-07-17T12:18:25;102623.91;;;29.86
24714;BMP280;12820;51.580;5.010;2022-07-17T12:23:39;102630.00;;;30.11
24714;BMP280;12820;51.580;5.010;2022-07-17T12:28:43;102624.19;;;30.32
24714;BMP280;12820;51.580;5.010;2022-07-17T12:33:45;102621.31;;;30.60
24714;BMP280;12820;51.580;5.010;2022-07-17T12:38:48;102615.09;;;30.87
24714;BMP280;12820;51.580;5.010;2022-07-17T12:43:50;102606.94;;;31.16
24714;BMP280;12820;51.580;5.010;2022-07-17T12:48:52;102603.94;;;31.44
24714;BMP280;12820;51.580;5.010;2022-07-17T12:53:55;102594.03;;;31.72
24714;BMP280;12820;51.580;5.010;2022-07-17T12:58:57;102590.38;;;32.08
24714;BMP280;12820;51.580;5.010;2022-07-17T13:04:03;102588.16;;;32.36
24714;BMP280;12820;51.580;5.010;2022-07-17T13:09:06;102574.13;;;32.70
24714;BMP280;12820;51.580;5.010;2022-07-17T13:14:11;102570.25;;;32.86
24714;BMP280;12820;51.580;5.010;2022-07-17T13:19:14;102559.53;;;33.11
24714;BMP280;12820;51.580;5.010;2022-07-17T13:24:20;102554.00;;;33.35
24714;BMP280;12820;51.580;5.010;2022-07-17T13:29:22;102541.34;;;33.61
24714;BMP280;12820;51.580;5.010;2022-07-17T13:34:25;102543.25;;;33.90
24714;BMP280;12820;51.580;5.010;2022-07-17T13:39:27;102541.28;;;34.12
24714;BMP280;12820;51.580;5.010;2022-07-17T13:44:30;102537.75;;;34.33
24714;BMP280;12820;51.580;5.010;2022-07-17T13:49:32;102522.78;;;34.44
24714;BMP280;12820;51.580;5.010;2022-07-17T13:54:34;102507.97;;;34.54
24714;BMP280;12820;51.580;5.010;2022-07-17T13:59:37;102507.69;;;34.77
24714;BMP280;12820;51.580;5.010;2022-07-17T14:04:39;102501.13;;;35.10
24714;BMP280;12820;51.580;5.010;2022-07-17T14:09:42;102495.63;;;35.31
24714;BMP280;12820;51.580;5.010;2022-07-17T14:14:44;102492.03;;;35.51
24714;BMP280;12820;51.580;5.010;2022-07-17T14:19:46;102478.81;;;35.61
24714;BMP280;12820;51.580;5.010;2022-07-17T14:24:48;102474.66;;;35.77
24714;BMP280;12820;51.580;5.010;2022-07-17T14:29:50;102472.97;;;35.95
24714;BMP280;12820;51.580;5.010;2022-07-17T14:34:53;102465.75;;;36.06
24714;BMP280;12820;51.580;5.010;2022-07-17T14:39:55;102478.94;;;36.23
24714;BMP280;12820;51.580;5.010;2022-07-17T14:44:57;102470.03;;;36.43
24714;BMP280;12820;51.580;5.010;2022-07-17T14:50:02;102480.31;;;36.53
24714;BMP280;12820;51.580;5.010;2022-07-17T14:55:05;102456.91;;;36.69
24714;BMP280;12820;51.580;5.010;2022-07-17T15:00:08;102465.41;;;36.80
24714;BMP280;12820;51.580;5.010;2022-07-17T15:05:10;102463.22;;;36.93
24714;BMP280;12820;51.580;5.010;2022-07-17T15:10:13;102447.34;;;36.94
24714;BMP280;12820;51.580;5.010;2022-07-17T15:15:15;102452.31;;;36.97
24714;BMP280;12820;51.580;5.010;2022-07-17T15:20:20;102444.13;;;36.83
24714;BMP280;12820;51.580;5.010;2022-07-17T15:25:22;102440.28;;;36.78
24714;BMP280;12820;51.580;5.010;2022-07-17T15:30:25;102446.81;;;36.91
24714;BMP280;12820;51.580;5.010;2022-07-17T15:35:27;102438.50;;;36.95
24714;BMP280;12820;51.580;5.010;2022-07-17T15:40:29;102434.13;;;36.86
24714;BMP280;12820;51.580;5.010;2022-07-17T15:45:36;102422.38;;;36.73
24714;BMP280;12820;51.580;5.010;2022-07-17T15:50:38;102412.50;;;36.67
24714;BMP280;12820;51.580;5.010;2022-07-17T15:55:40;102407.47;;;36.74
24714;BMP280;12820;51.580;5.010;2022-07-17T16:00:42;102396.75;;;36.67
24714;BMP280;12820;51.580;5.010;2022-07-17T16:05:46;102376.94;;;36.65
24714;BMP280;12820;51.580;5.010;2022-07-17T16:10:51;102378.59;;;36.40
24714;BMP280;12820;51.580;5.010;2022-07-17T16:15:53;102373.13;;;36.07
24714;BMP280;12820;51.580;5.010;2022-07-17T16:20:56;102374.78;;;35.72
24714;BMP280;12820;51.580;5.010;2022-07-17T16:25:58;102359.00;;;35.55
24714;BMP280;12820;51.580;5.010;2022-07-17T16:31:03;102363.78;;;35.60
24714;BMP280;12820;51.580;5.010;2022-07-17T16:36:06;102359.25;;;35.62
24714;BMP280;12820;51.580;5.010;2022-07-17T16:41:08;102358.41;;;35.61
24714;BMP280;12820;51.580;5.010;2022-07-17T16:46:11;102358.16;;;35.55
24714;BMP280;12820;51.580;5.010;2022-07-17T16:51:13;102339.16;;;35.53
24714;BMP280;12820;51.580;5.010;2022-07-17T16:56:20;102344.25;;;35.54
24714;BMP280;12820;51.580;5.010;2022-07-17T17:01:22;102332.84;;;35.46
24714;BMP280;12820;51.580;5.010;2022-07-17T17:06:24;102328.75;;;35.35
24714;BMP280;12820;51.580;5.010;2022-07-17T17:11:26;102331.69;;;35.22
24714;BMP280;12820;51.580;5.010;2022-07-17T17:16:29;102332.53;;;35.04
24714;BMP280;12820;51.580;5.010;2022-07-17T17:21:33;102340.94;;;34.89
24714;BMP280;12820;51.580;5.010;2022-07-17T17:26:35;102339.81;;;34.73
24714;BMP280;12820;51.580;5.010;2022-07-17T17:31:37;102340.75;;;34.54
24714;BMP280;12820;51.580;5.010;2022-07-17T17:36:39;102325.75;;;34.28
24714;BMP280;12820;51.580;5.010;2022-07-17T17:41:42;102318.53;;;34.02
24714;BMP280;12820;51.580;5.010;2022-07-17T17:46:44;102320.19;;;33.74
24714;BMP280;12820;51.580;5.010;2022-07-17T17:51:46;102306.22;;;33.46
24714;BMP280;12820;51.580;5.010;2022-07-17T17:56:49;102298.09;;;33.20
24714;BMP280;12820;51.580;5.010;2022-07-17T18:01:52;102305.22;;;32.98
24714;BMP280;12820;51.580;5.010;2022-07-17T18:06:54;102319.91;;;32.68
24714;BMP280;12820;51.580;5.010;2022-07-17T18:11:56;102317.38;;;32.36
24714;BMP280;12820;51.580;5.010;2022-07-17T18:17:01;102319.25;;;32.03
24714;BMP280;12820;51.580;5.010;2022-07-17T18:22:04;102323.50;;;31.72
24714;BMP280;12820;51.580;5.010;2022-07-17T18:27:06;102319.25;;;31.39
24714;BMP280;12820;51.580;5.010;2022-07-17T18:32:11;102319.75;;;31.10
24714;BMP280;12820;51.580;5.010;2022-07-17T18:37:13;102323.66;;;30.82
24714;BMP280;12820;51.580;5.010;2022-07-17T18:42:15;102317.88;;;30.56
24714;BMP280;12820;51.580;5.010;2022-07-17T18:47:20;102320.03;;;30.27
24714;BMP280;12820;51.580;5.010;2022-07-17T18:52:22;102320.16;;;30.02
24714;BMP280;12820;51.580;5.010;2022-07-17T18:57:24;102318.50;;;29.77
24714;BMP280;12820;51.580;5.010;2022-07-17T19:02:27;102308.16;;;29.53
24714;BMP280;12820;51.580;5.010;2022-07-17T19:07:29;102312.94;;;29.34
24714;BMP280;12820;51.580;5.010;2022-07-17T19:12:32;102303.97;;;29.14
24714;BMP280;12820;51.580;5.010;2022-07-17T19:17:34;102304.78;;;28.90
24714;BMP280;12820;51.580;5.010;2022-07-17T19:22:37;102291.44;;;28.70
24714;BMP280;12820;51.580;5.010;2022-07-17T19:27:39;102294.69;;;28.48
24714;BMP280;12820;51.580;5.010;2022-07-17T19:32:41;102306.59;;;28.24
24714;BMP280;12820;51.580;5.010;2022-07-17T19:37:43;102306.16;;;28.04
24714;BMP280;12820;51.580;5.010;2022-07-17T19:42:45;102311.84;;;27.83
24714;BMP280;12820;51.580;5.010;2022-07-17T19:47:48;102315.53;;;27.66
24714;BMP280;12820;51.580;5.010;2022-07-17T19:52:50;102327.78;;;27.49
24714;BMP280;12820;51.580;5.010;2022-07-17T19:57:53;102318.63;;;27.30
24714;BMP280;12820;51.580;5.010;2022-07-17T20:03:05;102314.53;;;27.12
24714;BMP280;12820;51.580;5.010;2022-07-17T20:08:07;102323.31;;;26.95
24714;BMP280;12820;51.580;5.010;2022-07-17T20:13:10;102316.63;;;26.77
24714;BMP280;12820;51.580;5.010;2022-07-17T20:18:13;102320.13;;;26.61
24714;BMP280;12820;51.580;5.010;2022-07-17T20:23:16;102329.75;;;26.44
24714;BMP280;12820;51.580;5.010;2022-07-17T20:28:21;102329.56;;;26.32
24714;BMP280;12820;51.580;5.010;2022-07-17T20:33:24;102324.56;;;26.14
24714;BMP280;12820;51.580;5.010;2022-07-17T20:38:26;102321.88;;;26.01
24714;BMP280;12820;51.580;5.010;2022-07-17T20:43:29;102321.88;;;25.85
24714;BMP280;12820;51.580;5.010;2022-07-17T20:48:31;102315.69;;;25.73
24714;BMP280;12820;51.580;5.010;2022-07-17T20:53:34;102314.75;;;25.59
24714;BMP280;12820;51.580;5.010;2022-07-17T20:58:37;102317.13;;;25.47
24714;BMP280;12820;51.580;5.010;2022-07-17T21:03:40;102322.97;;;25.33
24714;BMP280;12820;51.580;5.010;2022-07-17T21:08:43;102321.03;;;25.22
24714;BMP280;12820;51.580;5.010;2022-07-17T21:13:45;102326.72;;;25.10
24714;BMP280;12820;51.580;5.010;2022-07-17T21:18:52;102329.09;;;24.98
24714;BMP280;12820;51.580;5.010;2022-07-17T21:23:55;102326.25;;;24.86
24714;BMP280;12820;51.580;5.010;2022-07-17T21:28:57;102323.47;;;24.74
24714;BMP280;12820;51.580;5.010;2022-07-17T21:34:00;102333.44;;;24.63
24714;BMP280;12820;51.580;5.010;2022-07-17T21:39:03;102335.72;;;24.51
24714;BMP280;12820;51.580;5.010;2022-07-17T21:44:06;102337.97;;;24.40
24714;BMP280;12820;51.580;5.010;2022-07-17T21:49:10;102350.56;;;24.28
24714;BMP280;12820;51.580;5.010;2022-07-17T21:54:13;102353.69;;;24.16
24714;BMP280;12820;51.580;5.010;2022-07-17T21:59:16;102357.63;;;24.05
24714;BMP280;12820;51.580;5.010;2022-07-17T22:04:22;102348.81;;;23.92
24714;BMP280;12820;51.580;5.010;2022-07-17T22:09:24;102353.56;;;23.82
24714;BMP280;12820;51.580;5.010;2022-07-17T22:14:26;102347.28;;;23.69
24714;BMP280;12820;51.580;5.010;2022-07-17T22:19:29;102342.69;;;23.57
24714;BMP280;12820;51.580;5.010;2022-07-17T22:24:35;102345.94;;;23.43
24714;BMP280;12820;51.580;5.010;2022-07-17T22:29:41;102351.63;;;23.30
24714;BMP280;12820;51.580;5.010;2022-07-17T22:34:43;102351.22;;;23.19
24714;BMP280;12820;51.580;5.010;2022-07-17T22:39:46;102345.69;;;23.08
24714;BMP280;12820;51.580;5.010;2022-07-17T22:44:49;102343.69;;;22.95
24714;BMP280;12820;51.580;5.010;2022-07-17T22:49:51;102352.72;;;22.84
24714;BMP280;12820;51.580;5.010;2022-07-17T22:54:54;102354.94;;;22.72
24714;BMP280;12820;51.580;5.010;2022-07-17T22:59:56;102354.44;;;22.62
24714;BMP280;12820;51.580;5.010;2022-07-17T23:05:03;102353.94;;;22.53
24714;BMP280;12820;51.580;5.010;2022-07-17T23:10:05;102350.84;;;22.45
24714;BMP280;12820;51.580;5.010;2022-07-17T23:15:08;102351.31;;;22.34
24714;BMP280;12820;51.580;5.010;2022-07-17T23:20:11;102338.00;;;22.25
24714;BMP280;12820;51.580;5.010;2022-07-17T23:25:14;102345.28;;;22.14
24714;BMP280;12820;51.580;5.010;2022-07-17T23:30:16;102340.53;;;22.04
24714;BMP280;12820;51.580;5.010;2022-07-17T23:35:19;102335.75;;;21.95
24714;BMP280;12820;51.580;5.010;2022-07-17T23:40:22;102337.75;;;21.87
24714;BMP280;12820;51.580;5.010;2022-07-17T23:45:24;102331.25;;;21.77
24714;BMP280;12820;51.580;5.010;2022-07-17T23:50:26;102325.59;;;21.70
24714;BMP280;12820;51.580;5.010;2022-07-17T23:55:28;102326.75;;;21.61
